KSEA/SEA METAR and TAF weather

Enter ICAO airport designator
Station Type Date Time Source
KSEA METAR 2020/09/22 16:53 UTC NOAA

KSEA 221653Z 22010KT 10SM FEW007 FEW018 FEW035 16/12 A3004 RMK AO2 SLP175 T01610122


Station Type Date Time Source
KSEA Decoded METAR 2020/09/22 16:53 UTC NOAA

SEATTLE-TACOMA INTERNATIONAL AIRPORT , WA, United States (KSEA) 47-27N 122-19W 136M
Sep 22, 2020 - 12:53 PM EDT / 2020.09.22 1653 UTC
Wind: from the SW (220 degrees) at 12 MPH (10 KT):0
Visibility: 10 mile(s):0
Sky conditions: mostly clear
Temperature: 61.0 F (16.1 C)
Dew Point: 54.0 F (12.2 C)
Relative Humidity: 77%
Pressure (altimeter): 30.04 in. Hg (1017 hPa)
ob: KSEA 221653Z 22010KT 10SM FEW007 FEW018 FEW035 16/12 A3004 RMK AO2 SLP175 T01610122
cycle: 17

Station Type Date Time Source
KSEA TAF 2020/09/22 18:24 UTC NOAA

TAF KSEA 221721Z 2218/2324 22010KT P6SM FEW007 BKN035
FM221900 23006KT P6SM SCT005 BKN030
FM222200 23006KT P6SM SCT050 BKN120
FM230800 18008KT P6SM OVC090
FM231100 15008KT P6SM -RA OVC040
FM231600 15009KT 5SM -RA OVC010

Example: see airport list